Time;durP1;ratioP1;P1;durP2;ratioP2;P2;SDS_P1;SDS_P2;PMS_P1;PMS_P2;Temp;Humidity;BMP_temperature;BMP_pressure;BME280_temperature;BME280_humidity;BME280_pressure;Samples;Min_cycle;Max_cycle;Signal;HPM_P1;HPM_P2
2023/02/15 00:01:27;;;;;;;29.57;18.93;;;7.60;94.20;;;;;;5054502;28;20453;-58
2023/02/15 00:03:54;;;;;;;28.40;18.37;;;7.60;94.20;;;;;;5054490;28;20450;-58
2023/02/15 00:06:22;;;;;;;27.30;19.17;;;7.60;94.20;;;;;;5054444;28;20466;-58
2023/02/15 00:08:49;;;;;;;27.17;18.70;;;7.60;94.10;;;;;;5054023;28;20949;-58
2023/02/15 00:11:39;;;;;;;30.50;20.50;;;7.60;94.20;;;;;;5054307;28;20456;-58
2023/02/15 00:14:04;;;;;;;28.00;18.90;;;7.50;94.20;;;;;;5053131;28;20954;-59
2023/02/15 00:16:31;;;;;;;27.30;19.33;;;7.50;94.60;;;;;;5054270;28;20481;-58
2023/02/15 00:19:01;;;;;;;28.20;20.30;;;7.40;94.40;;;;;;5054257;28;20460;-58
2023/02/15 00:21:30;;;;;;;30.40;20.50;;;7.40;94.50;;;;;;5054183;28;20453;-58
2023/02/15 00:23:57;;;;;;;31.20;19.80;;;7.40;94.40;;;;;;5054288;28;20454;-58
2023/02/15 00:26:25;;;;;;;31.67;21.33;;;7.40;94.60;;;;;;5054063;28;20472;-58
2023/02/15 00:28:51;;;;;;;33.37;22.43;;;7.40;94.60;;;;;;5053986;28;20461;-58
2023/02/15 00:31:18;;;;;;;26.90;19.63;;;7.40;94.60;;;;;;5054016;28;20441;-58
2023/02/15 00:33:45;;;;;;;30.60;20.67;;;7.30;94.50;;;;;;5053935;28;20453;-58
2023/02/15 00:36:12;;;;;;;25.00;18.90;;;7.30;94.40;;;;;;5053724;28;20485;-58
2023/02/15 00:38:40;;;;;;;29.37;21.57;;;7.30;94.60;;;;;;5053851;28;20452;-58
2023/02/15 00:41:08;;;;;;;31.67;21.00;;;7.20;94.60;;;;;;5054369;28;20461;-58
2023/02/15 00:43:36;;;;;;;29.97;21.23;;;7.20;94.50;;;;;;5053543;28;20941;-58
2023/02/15 00:46:03;;;;;;;30.13;20.80;;;7.20;94.40;;;;;;5053700;28;20489;-58
2023/02/15 00:48:30;;;;;;;32.33;20.80;;;7.20;94.40;;;;;;5053442;28;20471;-58
2023/02/15 00:50:58;;;;;;;30.60;21.27;;;7.20;94.50;;;;;;5053742;28;20453;-58
2023/02/15 00:53:26;;;;;;;36.07;21.80;;;7.20;94.60;;;;;;5053712;28;20449;-58
2023/02/15 00:55:54;;;;;;;31.43;19.87;;;7.20;94.60;;;;;;5053456;28;20492;-58
2023/02/15 00:58:21;;;;;;;31.33;21.07;;;7.10;94.40;;;;;;5053821;28;20449;-58
2023/02/15 01:00:48;;;;;;;31.60;20.53;;;7.10;94.20;;;;;;5053634;28;20457;-58
2023/02/15 01:03:17;;;;;;;31.80;21.80;;;7.10;94.10;;;;;;5053691;28;20457;-58
2023/02/15 01:05:44;;;;;;;32.57;21.60;;;7.00;94.00;;;;;;5053461;28;20483;-58
2023/02/15 01:08:10;;;;;;;31.77;21.90;;;7.00;94.10;;;;;;5053426;28;20457;-58
2023/02/15 01:10:37;;;;;;;28.37;20.50;;;7.00;94.50;;;;;;5053444;28;20456;-58
2023/02/15 01:13:06;;;;;;;34.00;22.47;;;7.00;94.10;;;;;;5053379;28;20449;-58
2023/02/15 01:15:35;;;;;;;28.73;19.50;;;7.00;94.20;;;;;;5053180;28;20493;-58
2023/02/15 01:18:02;;;;;;;33.07;21.20;;;7.00;94.20;;;;;;5053261;28;20449;-58
2023/02/15 01:20:30;;;;;;;36.00;21.73;;;6.90;94.10;;;;;;5053452;28;20441;-58
2023/02/15 01:22:58;;;;;;;29.53;21.80;;;6.90;94.10;;;;;;5053386;28;20475;-58
2023/02/15 01:25:25;;;;;;;35.23;22.23;;;6.90;94.10;;;;;;5057335;28;20558;-58
2023/02/15 01:27:52;;;;;;;31.47;22.00;;;6.80;94.00;;;;;;5059568;28;20908;-58
2023/02/15 01:30:20;;;;;;;29.40;20.20;;;6.80;94.00;;;;;;5059815;28;20960;-58
2023/02/15 01:32:47;;;;;;;32.40;21.97;;;6.80;94.10;;;;;;5059884;28;20449;-58
2023/02/15 01:35:14;;;;;;;33.90;22.17;;;6.80;94.00;;;;;;5059665;28;20484;-58
2023/02/15 01:37:40;;;;;;;32.13;21.53;;;6.80;94.10;;;;;;5059429;28;20848;-58
2023/02/15 01:40:12;;;;;;;31.67;20.20;;;6.70;94.00;;;;;;5059823;28;20437;-58
2023/02/15 01:42:39;;;;;;;30.67;20.83;;;6.70;94.20;;;;;;5059846;28;20445;-58
2023/02/15 01:45:15;;;;;;;31.00;21.23;;;6.70;94.20;;;;;;5059701;28;20466;-58
2023/02/15 01:47:46;;;;;;;30.80;21.30;;;6.60;94.30;;;;;;5059513;28;20455;-58
2023/02/15 01:50:18;;;;;;;29.93;21.60;;;6.60;94.40;;;;;;5059778;28;20438;-58
2023/02/15 01:52:49;;;;;;;33.20;21.73;;;6.50;94.60;;;;;;5059446;28;20434;-58
2023/02/15 01:55:17;;;;;;;31.50;22.40;;;6.60;94.70;;;;;;5059895;28;20481;-58
2023/02/15 01:57:45;;;;;;;32.10;21.47;;;6.50;94.80;;;;;;5059657;28;20797;-58
2023/02/15 02:00:16;;;;;;;33.60;22.47;;;6.50;95.20;;;;;;5059667;28;20445;-58
2023/02/15 02:02:47;;;;;;;34.50;21.30;;;6.50;95.00;;;;;;5059694;28;20430;-58
2023/02/15 02:05:14;;;;;;;36.20;23.47;;;6.40;95.20;;;;;;5059708;28;20860;-58
2023/02/15 02:07:44;;;;;;;33.50;22.03;;;6.40;95.20;;;;;;5059890;28;20457;-58
2023/02/15 02:10:14;;;;;;;33.93;22.70;;;6.40;95.30;;;;;;5059735;28;20439;-58
2023/02/15 02:12:44;;;;;;;30.80;21.43;;;6.40;95.40;;;;;;5059692;28;20437;-58
2023/02/15 02:15:11;;;;;;;34.60;24.70;;;6.40;95.60;;;;;;5059511;28;20489;-58
2023/02/15 02:17:50;;;;;;;34.30;21.97;;;6.40;95.60;;;;;;5059468;28;20815;-58
2023/02/15 02:20:46;;;;;;;30.40;22.00;;;6.40;95.70;;;;;;5060003;28;20433;-58
2023/02/15 02:23:25;;;;;;;30.10;20.50;;;6.40;95.70;;;;;;5048933;28;20460;-58
2023/02/15 02:26:20;;;;;;;32.50;22.13;;;6.30;95.70;;;;;;5060050;28;20473;-58
2023/02/15 02:29:22;;;;;;;31.73;22.93;;;6.30;95.80;;;;;;5059930;28;20455;-58
2023/02/15 02:32:12;;;;;;;33.17;22.07;;;6.30;95.90;;;;;;5043184;28;20460;-58
2023/02/15 02:34:48;;;;;;;35.90;23.50;;;6.30;95.80;;;;;;5058474;28;20484;-58
2023/02/15 02:37:24;;;;;;;34.43;22.77;;;6.30;95.70;;;;;;5055884;28;20421;-58
2023/02/15 02:40:00;;;;;;;33.77;21.93;;;6.30;95.60;;;;;;5056298;28;20438;-58
2023/02/15 02:42:34;;;;;;;33.60;21.70;;;6.30;95.60;;;;;;5056172;28;20437;-58
2023/02/15 02:45:06;;;;;;;37.27;23.10;;;6.30;95.60;;;;;;5056102;28;20474;-58
2023/02/15 02:47:38;;;;;;;34.53;23.40;;;6.30;95.60;;;;;;5056289;28;20457;-58
2023/02/15 02:50:09;;;;;;;34.13;21.77;;;6.20;95.60;;;;;;5056140;28;20441;-58
2023/02/15 02:52:42;;;;;;;36.77;24.27;;;6.30;95.70;;;;;;5055633;28;20925;-58
2023/02/15 02:55:13;;;;;;;32.80;20.90;;;6.20;95.60;;;;;;5055701;28;20465;-58
2023/02/15 02:57:48;;;;;;;34.43;22.83;;;6.20;95.50;;;;;;5055506;28;20806;-58
2023/02/15 03:00:16;;;;;;;32.40;21.27;;;6.20;95.60;;;;;;5055711;28;20441;-58
2023/02/15 03:02:46;;;;;;;34.80;22.17;;;6.20;95.80;;;;;;5055725;28;20458;-58
2023/02/15 03:05:18;;;;;;;33.67;21.67;;;6.20;95.70;;;;;;5055632;28;20469;-58
2023/02/15 03:07:50;;;;;;;30.93;21.80;;;6.20;95.70;;;;;;5055570;28;20443;-58
2023/02/15 03:10:21;;;;;;;31.67;22.80;;;6.20;95.60;;;;;;5055653;28;20487;-58
2023/02/15 03:12:47;;;;;;;33.23;22.60;;;6.10;95.60;;;;;;5055480;28;20434;-58
2023/02/15 03:15:18;;;;;;;31.93;21.17;;;6.10;95.70;;;;;;5055311;28;20552;-58
2023/02/15 03:17:48;;;;;;;33.10;21.90;;;6.10;95.90;;;;;;5055451;28;20847;-58
2023/02/15 03:20:21;;;;;;;33.30;21.80;;;6.10;95.90;;;;;;5055454;28;20434;-58
2023/02/15 03:22:51;;;;;;;36.37;23.33;;;6.10;95.90;;;;;;5055613;28;20436;-58
2023/02/15 03:25:22;;;;;;;34.70;23.67;;;6.10;95.90;;;;;;5055526;28;20473;-58
2023/02/15 03:27:55;;;;;;;31.60;20.47;;;6.10;95.80;;;;;;5055588;28;20426;-58
2023/02/15 03:30:23;;;;;;;31.20;21.03;;;6.10;95.70;;;;;;5055195;28;20491;-58
2023/02/15 03:32:52;;;;;;;30.50;21.30;;;6.00;95.70;;;;;;5055112;28;20493;-58
2023/02/15 03:35:25;;;;;;;32.03;22.07;;;6.00;95.80;;;;;;5054945;28;20470;-58
2023/02/15 03:37:58;;;;;;;36.67;22.37;;;6.00;95.80;;;;;;5055046;28;20495;-58
2023/02/15 03:43:22;;;;;;;31.40;22.03;;;6.00;95.70;;;;;;5054749;28;20402;-58
2023/02/15 03:45:55;;;;;;;32.70;20.10;;;5.90;95.80;;;;;;5054930;28;20464;-58
2023/02/15 03:48:25;;;;;;;29.80;20.60;;;5.90;95.70;;;;;;5054748;28;20507;-58
2023/02/15 03:53:42;;;;;;;33.33;21.83;;;5.90;95.70;;;;;;5054819;28;20409;-58
2023/02/15 03:56:08;;;;;;;33.83;21.83;;;5.80;95.70;;;;;;5054261;28;21010;-58
2023/02/15 04:01:57;;;;;;;31.90;20.97;;;5.80;95.80;;;;;;5054680;28;20402;-58
2023/02/15 04:04:27;;;;;;;33.83;21.20;;;5.80;95.90;;;;;;5054491;28;20894;-58
2023/02/15 04:06:55;;;;;;;28.77;19.17;;;5.80;95.80;;;;;;5054493;28;20449;-58
2023/02/15 04:12:06;;;;;;;29.20;20.27;;;5.80;95.80;;;;;;5054310;28;20484;-58
2023/02/15 04:17:17;;;;;;;31.50;21.10;;;5.70;96.00;;;;;;5053987;28;20968;-58
2023/02/15 04:25:14;;;;;;;30.77;21.07;;;5.60;96.10;;;;;;5054292;28;21067;-58
2023/02/15 04:27:42;;;;;;;27.73;18.50;;;5.70;96.20;;;;;;5054225;28;20472;-58
2023/02/15 04:30:10;;;;;;;32.00;21.10;;;5.60;96.20;;;;;;5053735;28;20787;-59
2023/02/15 04:32:38;;;;;;;27.47;19.37;;;5.60;96.20;;;;;;5054035;28;20430;-58
2023/02/15 04:35:06;;;;;;;36.67;22.93;;;5.60;96.10;;;;;;5054132;28;20888;-58
2023/02/15 04:37:34;;;;;;;31.23;20.27;;;5.60;96.10;;;;;;5053864;28;20481;-58
2023/02/15 04:40:01;;;;;;;32.40;21.30;;;5.60;96.10;;;;;;5053827;28;20446;-58
2023/02/15 04:42:28;;;;;;;30.87;21.17;;;5.60;96.10;;;;;;5053851;28;20450;-58
2023/02/15 04:44:55;;;;;;;31.83;20.77;;;5.50;96.10;;;;;;5053473;28;20843;-58
2023/02/15 04:47:22;;;;;;;31.13;20.77;;;5.50;96.10;;;;;;5053515;28;20981;-58
2023/02/15 04:49:48;;;;;;;29.57;19.27;;;5.50;96.20;;;;;;5053756;28;20460;-59
2023/02/15 04:52:17;;;;;;;32.30;21.53;;;5.50;96.30;;;;;;5053605;28;20449;-58
2023/02/15 04:54:45;;;;;;;28.30;20.40;;;5.50;96.30;;;;;;5053672;28;20513;-58
2023/02/15 04:57:12;;;;;;;35.33;20.77;;;5.50;96.40;;;;;;5053663;28;20489;-58
2023/02/15 04:59:38;;;;;;;32.40;20.60;;;5.40;96.40;;;;;;5053107;28;20426;-58
2023/02/15 05:02:05;;;;;;;36.87;22.37;;;5.40;96.40;;;;;;5053716;28;20465;-58
2023/02/15 05:04:32;;;;;;;32.77;21.80;;;5.40;96.50;;;;;;5053457;28;20469;-58
2023/02/15 05:06:59;;;;;;;28.17;19.47;;;5.40;96.50;;;;;;5053214;28;20942;-58
2023/02/15 05:09:25;;;;;;;29.87;21.10;;;5.40;96.50;;;;;;5053462;28;20462;-58
2023/02/15 05:11:53;;;;;;;29.10;19.93;;;5.40;96.50;;;;;;5053413;28;20460;-58
2023/02/15 05:14:20;;;;;;;34.23;20.50;;;5.40;96.50;;;;;;5053647;28;20449;-58
2023/02/15 05:16:47;;;;;;;30.23;20.77;;;5.40;96.50;;;;;;5053065;28;21020;-58
2023/02/15 05:19:14;;;;;;;32.37;22.07;;;5.30;96.50;;;;;;5053502;28;20472;-58
2023/02/15 05:21:40;;;;;;;30.93;20.30;;;5.30;96.50;;;;;;5053159;28;20445;-58
2023/02/15 05:28:19;;;;;;;29.43;18.80;;;5.30;96.60;;;;;;5053234;28;20449;-58
2023/02/15 05:29:40;;;;;;;33.80;21.43;;;5.30;96.60;;;;;;5053146;28;20564;-58
2023/02/15 05:32:08;;;;;;;33.60;20.63;;;5.30;96.60;;;;;;5053153;28;20892;-58
2023/02/15 05:34:34;;;;;;;31.07;21.87;;;5.20;96.60;;;;;;5053044;28;20989;-58
2023/02/15 05:37:01;;;;;;;31.40;20.40;;;5.20;96.60;;;;;;5053037;28;20576;-58
2023/02/15 05:39:28;;;;;;;29.10;19.77;;;5.20;96.70;;;;;;5052875;28;20449;-58
2023/02/15 05:41:58;;;;;;;33.90;21.87;;;5.30;96.80;;;;;;5053240;28;20466;-58
2023/02/15 05:44:25;;;;;;;30.33;20.80;;;5.20;96.70;;;;;;5053016;28;20480;-58
2023/02/15 05:46:52;;;;;;;34.73;20.83;;;5.20;96.70;;;;;;5052964;28;20528;-58
2023/02/15 05:49:19;;;;;;;31.50;21.23;;;5.20;96.80;;;;;;5053508;28;20442;-58
2023/02/15 05:51:45;;;;;;;35.40;21.77;;;5.20;97.00;;;;;;5052906;28;20463;-58
2023/02/15 05:54:12;;;;;;;31.90;20.30;;;5.20;97.10;;;;;;5052633;28;20453;-58
2023/02/15 05:56:39;;;;;;;32.20;21.17;;;5.20;97.10;;;;;;5052949;28;20470;-58
2023/02/15 05:59:07;;;;;;;33.40;20.13;;;5.20;97.20;;;;;;5052964;28;20477;-58
2023/02/15 06:01:33;;;;;;;33.17;20.80;;;5.10;97.20;;;;;;5052919;28;20450;-57
2023/02/15 06:04:00;;;;;;;34.43;21.30;;;5.10;97.20;;;;;;5053200;28;20438;-58
2023/02/15 06:06:27;;;;;;;34.40;20.40;;;5.10;97.30;;;;;;5052592;28;20993;-58
2023/02/15 06:08:53;;;;;;;31.57;21.10;;;5.00;97.40;;;;;;5052901;28;20464;-57
2023/02/15 06:11:20;;;;;;;32.70;21.20;;;5.10;97.50;;;;;;5053360;28;20442;-58
2023/02/15 06:13:47;;;;;;;32.40;20.87;;;5.00;97.40;;;;;;5056663;28;20457;-57
2023/02/15 06:16:15;;;;;;;34.20;21.00;;;5.00;97.50;;;;;;5056477;28;20485;-58
2023/02/15 06:18:42;;;;;;;33.20;20.20;;;5.00;97.60;;;;;;5056678;28;20453;-58
2023/02/15 06:21:09;;;;;;;31.03;20.47;;;4.90;97.60;;;;;;5056646;28;20509;-58
2023/02/15 06:23:36;;;;;;;28.70;19.77;;;4.90;97.60;;;;;;5056569;28;20453;-58
2023/02/15 06:26:02;;;;;;;30.43;20.60;;;4.90;97.90;;;;;;5056762;28;20469;-58
2023/02/15 06:28:29;;;;;;;32.10;19.57;;;4.90;98.00;;;;;;5057027;28;20445;-59
2023/02/15 06:30:56;;;;;;;31.30;20.03;;;4.90;98.00;;;;;;5057081;28;20918;-59
2023/02/15 06:33:24;;;;;;;31.83;20.17;;;4.90;98.00;;;;;;5056658;28;20452;-58
2023/02/15 06:35:51;;;;;;;30.03;19.77;;;4.80;98.00;;;;;;5056362;28;20535;-58
2023/02/15 06:38:17;;;;;;;32.80;21.00;;;4.80;98.00;;;;;;5056128;28;20485;-59
2023/02/15 06:40:44;;;;;;;30.47;19.47;;;4.90;98.00;;;;;;5056893;28;20821;-58
2023/02/15 06:43:11;;;;;;;34.13;20.00;;;4.80;97.80;;;;;;5056293;28;20450;-58
2023/02/15 06:45:37;;;;;;;31.70;20.23;;;4.80;97.80;;;;;;5056050;28;20473;-57
2023/02/15 06:48:06;;;;;;;31.30;19.40;;;4.80;97.90;;;;;;5056159;28;20461;-57
2023/02/15 06:50:35;;;;;;;30.73;18.67;;;4.80;97.90;;;;;;5056014;28;20471;-58
2023/02/15 06:53:02;;;;;;;34.63;20.10;;;4.80;98.00;;;;;;5055826;28;20507;-57
2023/02/15 06:55:29;;;;;;;29.07;18.93;;;4.80;98.00;;;;;;5056006;28;20477;-57
2023/02/15 06:57:55;;;;;;;26.50;17.03;;;4.80;98.10;;;;;;5055733;28;20554;-58
2023/02/15 07:00:23;;;;;;;29.53;19.27;;;4.80;98.00;;;;;;5056208;28;20449;-58
2023/02/15 07:02:56;;;;;;;28.90;19.17;;;4.80;98.00;;;;;;5055707;28;20536;-57
2023/02/15 07:05:22;;;;;;;29.47;19.00;;;4.80;98.10;;;;;;5055686;28;20465;-57
2023/02/15 07:07:51;;;;;;;30.27;19.83;;;4.80;98.10;;;;;;5055537;28;20468;-57
2023/02/15 07:10:18;;;;;;;29.40;17.83;;;4.80;98.10;;;;;;5055654;28;20462;-57
2023/02/15 07:12:44;;;;;;;34.67;20.67;;;4.80;98.10;;;;;;5055226;28;20450;-57
2023/02/15 07:15:13;;;;;;;30.87;19.73;;;4.80;98.10;;;;;;5055405;28;20511;-57
2023/02/15 07:17:40;;;;;;;31.60;19.70;;;4.80;98.10;;;;;;5055331;28;20481;-57
2023/02/15 07:20:10;;;;;;;34.23;19.67;;;4.90;98.20;;;;;;5055423;28;20441;-57
2023/02/15 07:22:37;;;;;;;31.50;20.47;;;4.90;98.20;;;;;;5054789;28;20445;-58
2023/02/15 07:25:06;;;;;;;33.97;18.97;;;4.90;98.10;;;;;;5055181;28;20484;-57
2023/02/15 07:27:32;;;;;;;28.93;18.80;;;4.90;98.20;;;;;;5055708;28;20461;-57
2023/02/15 07:29:59;;;;;;;30.53;19.57;;;4.90;98.20;;;;;;5055236;28;20437;-58
2023/02/15 07:32:28;;;;;;;30.63;19.03;;;4.90;98.20;;;;;;5055137;28;20452;-57
2023/02/15 07:34:55;;;;;;;34.83;20.10;;;5.00;98.20;;;;;;5055015;28;20513;-57
2023/02/15 07:37:22;;;;;;;33.10;20.10;;;4.90;98.10;;;;;;5055047;28;20493;-58
2023/02/15 07:39:48;;;;;;;28.00;18.03;;;5.00;98.40;;;;;;5054878;28;20937;-57
2023/02/15 07:42:17;;;;;;;28.90;18.47;;;5.00;98.20;;;;;;5054951;28;20453;-57
2023/02/15 07:44:44;;;;;;;30.83;18.80;;;5.00;98.10;;;;;;5054831;28;20469;-57
2023/02/15 07:47:11;;;;;;;27.47;18.00;;;5.00;98.10;;;;;;5054746;28;20464;-58
2023/02/15 07:49:38;;;;;;;28.10;17.60;;;5.00;98.10;;;;;;5054937;28;20784;-57
2023/02/15 07:52:05;;;;;;;32.93;19.70;;;5.10;98.10;;;;;;5054782;28;20450;-58
2023/02/15 07:54:32;;;;;;;30.43;19.70;;;5.10;98.20;;;;;;5054358;28;21060;-57
2023/02/15 07:56:59;;;;;;;29.27;18.27;;;5.10;98.10;;;;;;5054699;28;20477;-57
2023/02/15 07:59:27;;;;;;;31.40;17.80;;;5.20;98.10;;;;;;5054741;28;20454;-57
2023/02/15 08:01:56;;;;;;;28.03;19.70;;;5.10;98.00;;;;;;5054576;28;20445;-58
2023/02/15 08:04:22;;;;;;;29.70;18.93;;;5.10;98.00;;;;;;5054209;28;20489;-58
2023/02/15 08:06:54;;;;;;;26.57;19.00;;;5.20;98.10;;;;;;5054527;28;20441;-57
2023/02/15 08:09:21;;;;;;;27.50;18.40;;;5.20;98.00;;;;;;5054495;28;20505;-58
2023/02/15 08:11:48;;;;;;;30.13;18.60;;;5.30;98.10;;;;;;5054389;28;20476;-57
2023/02/15 08:14:17;;;;;;;34.37;18.60;;;5.30;98.00;;;;;;5054105;28;20460;-57
2023/02/15 08:16:46;;;;;;;29.53;19.23;;;5.30;98.00;;;;;;5054207;28;20499;-57
2023/02/15 08:19:14;;;;;;;30.03;18.57;;;5.30;98.00;;;;;;5054283;28;20452;-57
2023/02/15 08:21:43;;;;;;;29.10;18.57;;;5.40;98.00;;;;;;5054474;28;20458;-57
2023/02/15 08:24:11;;;;;;;27.00;18.03;;;5.40;98.00;;;;;;5054107;28;20449;-58
2023/02/15 08:26:39;;;;;;;25.80;18.07;;;5.40;97.90;;;;;;5054184;28;20452;-57
2023/02/15 08:29:07;;;;;;;25.93;17.27;;;5.50;97.90;;;;;;5054091;28;20497;-57
2023/02/15 08:31:35;;;;;;;31.50;18.50;;;5.50;97.90;;;;;;5054030;28;20548;-57
2023/02/15 08:34:03;;;;;;;30.20;18.30;;;5.50;97.90;;;;;;5053181;28;20450;-57
2023/02/15 08:36:32;;;;;;;30.73;18.80;;;5.60;98.00;;;;;;5053935;28;20481;-57
2023/02/15 08:39:00;;;;;;;27.30;19.00;;;5.60;97.80;;;;;;5053926;28;20442;-57
2023/02/15 08:41:29;;;;;;;30.10;18.53;;;5.60;97.80;;;;;;5053929;28;20457;-57
2023/02/15 08:43:57;;;;;;;27.23;17.40;;;5.70;97.80;;;;;;5053920;28;20507;-58
2023/02/15 08:46:26;;;;;;;29.63;19.20;;;5.70;97.70;;;;;;5053654;28;20477;-57
2023/02/15 08:48:53;;;;;;;27.33;18.97;;;5.80;97.80;;;;;;5053520;28;20464;-57
2023/02/15 08:51:23;;;;;;;27.73;18.27;;;5.80;97.80;;;;;;5053785;28;20449;-57
2023/02/15 08:53:52;;;;;;;29.07;19.30;;;5.80;97.70;;;;;;5054557;28;20450;-57
2023/02/15 08:56:21;;;;;;;26.70;17.03;;;5.90;97.80;;;;;;5053907;28;20470;-57
2023/02/15 08:58:48;;;;;;;24.77;17.23;;;6.00;97.80;;;;;;5053858;28;20489;-58
2023/02/15 09:01:19;;;;;;;25.90;16.03;;;6.00;97.60;;;;;;5054286;28;20458;-57
2023/02/15 09:03:47;;;;;;;24.10;17.47;;;6.00;97.70;;;;;;5054203;28;20452;-56
2023/02/15 09:06:14;;;;;;;25.90;18.53;;;6.00;97.80;;;;;;5054231;28;20499;-55
2023/02/15 09:08:42;;;;;;;27.37;18.40;;;6.10;97.80;;;;;;5054490;28;20965;-55
2023/02/15 09:11:11;;;;;;;31.80;19.33;;;6.20;97.80;;;;;;5054591;28;20961;-55
2023/02/15 09:13:38;;;;;;;28.03;18.50;;;6.20;97.60;;;;;;5054146;28;20462;-56
2023/02/15 09:16:07;;;;;;;27.40;18.70;;;6.20;97.50;;;;;;5053203;28;20466;-56
2023/02/15 09:18:37;;;;;;;25.63;18.20;;;6.30;97.30;;;;;;5052924;28;20843;-56
2023/02/15 09:21:08;;;;;;;31.53;18.10;;;6.30;97.10;;;;;;5053326;28;20442;-57
2023/02/15 09:23:35;;;;;;;25.00;16.67;;;6.30;97.20;;;;;;5053728;28;20445;-56
2023/02/15 09:26:06;;;;;;;24.03;17.60;;;6.40;97.40;;;;;;5055426;28;20978;-56
2023/02/15 09:28:33;;;;;;;25.13;17.60;;;6.50;97.30;;;;;;5054646;28;20484;-56
2023/02/15 09:31:06;;;;;;;27.13;18.93;;;6.50;97.10;;;;;;5053512;28;20503;-57
2023/02/15 09:33:34;;;;;;;25.87;18.47;;;6.60;97.10;;;;;;5053379;28;20465;-57
2023/02/15 09:36:01;;;;;;;27.47;18.50;;;6.70;97.00;;;;;;5052804;28;20997;-57
2023/02/15 09:38:28;;;;;;;27.70;18.00;;;6.80;96.80;;;;;;5053076;28;20481;-56
2023/02/15 09:41:11;;;;;;;25.03;18.20;;;6.90;96.80;;;;;;5053142;28;20461;-56
2023/02/15 09:43:47;;;;;;;29.03;17.47;;;6.90;96.50;;;;;;5053148;28;20452;-57
2023/02/15 09:46:33;;;;;;;22.13;16.03;;;7.00;96.40;;;;;;5054976;28;20476;-57
2023/02/15 09:49:05;;;;;;;24.20;17.83;;;7.20;96.40;;;;;;5056752;28;20449;-57
2023/02/15 09:52:13;;;;;;;24.63;17.10;;;7.30;96.40;;;;;;5056788;28;20781;-57
2023/02/15 09:55:00;;;;;;;23.57;16.73;;;7.40;96.20;;;;;;5056954;28;20515;-57
2023/02/15 09:57:37;;;;;;;24.43;16.97;;;7.60;95.90;;;;;;5056916;28;20466;-57
2023/02/15 10:00:15;;;;;;;22.50;17.37;;;7.70;95.70;;;;;;5056947;28;20441;-57
2023/02/15 10:03:04;;;;;;;23.93;17.40;;;7.80;95.30;;;;;;5056916;28;20464;-57
2023/02/15 10:05:43;;;;;;;24.43;16.70;;;7.90;95.10;;;;;;5056502;28;20476;-57
2023/02/15 10:08:42;;;;;;;23.77;17.83;;;8.10;94.70;;;;;;5056531;28;20894;-57
2023/02/15 10:14:16;;;;;;;24.30;17.07;;;8.40;94.40;;;;;;5056828;28;20413;-57
2023/02/15 10:16:50;;;;;;;23.00;16.40;;;8.40;94.10;;;;;;5056638;28;20441;-57
2023/02/15 10:19:24;;;;;;;25.03;17.77;;;8.60;93.90;;;;;;5056589;28;20461;-57
2023/02/15 10:22:04;;;;;;;22.67;17.10;;;8.70;93.50;;;;;;5056503;28;20437;-57
2023/02/15 10:24:59;;;;;;;25.77;18.20;;;8.70;92.80;;;;;;5056409;28;20472;-57
2023/02/15 10:27:31;;;;;;;28.07;16.57;;;8.80;93.00;;;;;;5056106;28;20805;-57
2023/02/15 10:30:08;;;;;;;22.30;17.80;;;9.00;92.80;;;;;;5056426;28;20437;-57
2023/02/15 10:32:41;;;;;;;28.90;19.67;;;9.10;92.70;;;;;;5056492;28;20837;-57
2023/02/15 10:35:18;;;;;;;22.10;17.00;;;9.20;92.70;;;;;;5055952;28;20999;-57
2023/02/15 10:38:07;;;;;;;27.97;18.87;;;9.40;92.60;;;;;;5056196;28;20480;-57
2023/02/15 10:40:41;;;;;;;24.83;18.07;;;9.60;92.20;;;;;;5056140;28;20441;-57
2023/02/15 10:43:24;;;;;;;27.93;17.93;;;9.90;92.00;;;;;;5056151;28;20533;-57
2023/02/15 10:46:01;;;;;;;24.10;17.23;;;10.20;90.90;;;;;;5056089;28;20476;-57
2023/02/15 10:48:56;;;;;;;25.37;16.77;;;10.40;90.30;;;;;;5055701;28;20579;-57
2023/02/15 10:51:35;;;;;;;24.07;18.27;;;10.80;89.00;;;;;;5055702;28;20911;-57
2023/02/15 10:54:17;;;;;;;21.73;16.80;;;11.30;86.80;;;;;;5055638;28;20889;-58
2023/02/15 10:56:56;;;;;;;19.87;16.50;;;11.80;84.30;;;;;;5055502;28;20434;-58
2023/02/15 10:59:38;;;;;;;21.33;16.37;;;12.30;81.20;;;;;;5055581;28;20473;-59
2023/02/15 11:02:17;;;;;;;19.47;16.60;;;12.70;77.20;;;;;;5055809;28;20430;-59
2023/02/15 11:05:03;;;;;;;19.33;16.03;;;13.00;75.60;;;;;;5055692;28;20503;-59
2023/02/15 11:07:35;;;;;;;20.17;17.93;;;13.00;72.80;;;;;;5055409;28;20949;-59
2023/02/15 11:10:14;;;;;;;20.40;17.00;;;12.90;72.40;;;;;;5055701;28;20438;-59
2023/02/15 11:12:44;;;;;;;21.77;16.83;;;12.90;73.80;;;;;;5055560;28;20442;-59
2023/02/15 11:15:18;;;;;;;22.40;16.17;;;13.00;73.90;;;;;;5055501;28;20457;-59
2023/02/15 11:17:50;;;;;;;19.33;17.20;;;13.20;74.10;;;;;;5055387;28;20472;-59
2023/02/15 11:20:25;;;;;;;19.57;16.47;;;13.40;73.90;;;;;;5055494;28;20847;-59
2023/02/15 11:22:53;;;;;;;19.70;16.30;;;13.60;73.20;;;;;;5055400;28;20433;-59
2023/02/15 11:25:26;;;;;;;17.90;13.87;;;14.00;71.70;;;;;;5054940;28;20461;-59
2023/02/15 11:27:53;;;;;;;17.83;14.20;;;14.50;70.10;;;;;;5055286;28;20430;-59
2023/02/15 11:30:23;;;;;;;18.30;15.13;;;15.10;66.30;;;;;;5055258;28;20450;-59
2023/02/15 11:32:54;;;;;;;19.60;15.00;;;15.80;62.80;;;;;;5055250;28;20445;-59
2023/02/15 11:35:27;;;;;;;18.03;14.50;;;16.40;59.00;;;;;;5054762;28;21013;-59
2023/02/15 11:37:58;;;;;;;17.90;16.03;;;17.00;57.20;;;;;;5055035;28;20473;-59
2023/02/15 11:40:28;;;;;;;17.60;15.80;;;17.60;55.30;;;;;;5054750;28;20910;-59
2023/02/15 11:42:57;;;;;;;19.10;15.50;;;18.10;53.80;;;;;;5054915;28;20453;-59
2023/02/15 11:45:29;;;;;;;19.33;14.53;;;18.40;49.80;;;;;;5054564;28;21032;-59
2023/02/15 11:47:58;;;;;;;17.20;15.27;;;18.80;48.70;;;;;;5054494;28;20472;-59
2023/02/15 11:50:26;;;;;;;17.00;15.20;;;19.10;48.60;;;;;;5054740;28;20460;-59
2023/02/15 11:52:57;;;;;;;19.70;15.70;;;19.30;45.90;;;;;;5054756;28;20476;-59
2023/02/15 11:55:25;;;;;;;17.13;15.33;;;19.60;46.20;;;;;;5054738;28;20473;-59
2023/02/15 11:57:56;;;;;;;17.40;14.57;;;19.70;46.20;;;;;;5055416;28;20485;-59
2023/02/15 12:00:35;;;;;;;18.67;14.50;;;20.00;46.30;;;;;;5054737;28;20433;-59
2023/02/15 12:03:10;;;;;;;17.23;15.43;;;20.30;45.80;;;;;;5054390;28;20773;-59
2023/02/15 12:05:40;;;;;;;16.93;15.07;;;20.80;45.00;;;;;;5054200;28;20991;-59
2023/02/15 12:08:14;;;;;;;18.70;14.40;;;21.20;43.90;;;;;;5054426;28;20450;-59
2023/02/15 12:10:47;;;;;;;18.70;15.37;;;21.50;42.50;;;;;;5054484;28;20430;-59
2023/02/15 12:13:16;;;;;;;20.70;14.87;;;21.90;41.70;;;;;;5054086;28;20898;-59
2023/02/15 12:15:46;;;;;;;16.33;14.73;;;22.20;40.70;;;;;;5054291;28;20465;-59
2023/02/15 12:18:22;;;;;;;17.37;15.60;;;22.60;40.20;;;;;;5054203;28;20611;-59
2023/02/15 12:20:50;;;;;;;16.60;14.90;;;22.90;39.00;;;;;;5054326;28;20434;-59
2023/02/15 12:23:18;;;;;;;16.20;14.50;;;23.10;38.00;;;;;;5054120;28;20477;-59
2023/02/15 12:25:53;;;;;;;16.50;14.60;;;23.40;38.30;;;;;;5054363;28;20844;-59
2023/02/15 12:28:26;;;;;;;15.37;13.77;;;23.60;37.70;;;;;;5054175;28;20517;-59
2023/02/15 12:30:55;;;;;;;17.30;14.87;;;23.90;37.20;;;;;;5054115;28;20457;-59
2023/02/15 12:33:29;;;;;;;16.40;13.37;;;24.20;36.80;;;;;;5054164;28;20441;-60
2023/02/15 12:36:00;;;;;;;15.53;14.00;;;24.40;35.90;;;;;;5054033;28;20556;-58
2023/02/15 12:38:28;;;;;;;16.23;14.33;;;24.70;35.40;;;;;;5054033;28;20473;-57
2023/02/15 12:41:00;;;;;;;15.60;14.10;;;24.90;34.50;;;;;;5053957;28;20449;-57
2023/02/15 12:43:30;;;;;;;13.93;12.60;;;25.20;33.50;;;;;;5053817;28;20462;-57
2023/02/15 12:46:19;;;;;;;15.30;13.70;;;25.30;33.30;;;;;;5053766;28;20523;-57
2023/02/15 12:48:48;;;;;;;14.40;13.00;;;25.50;33.00;;;;;;5053455;28;20464;-57
2023/02/15 12:51:16;;;;;;;15.40;12.67;;;25.70;32.80;;;;;;5053853;28;20798;-57
2023/02/15 12:53:43;;;;;;;15.47;13.67;;;26.00;32.40;;;;;;5053319;28;20817;-57
2023/02/15 12:56:11;;;;;;;15.67;14.00;;;26.20;31.80;;;;;;5053248;28;21001;-57
2023/02/15 12:58:39;;;;;;;15.67;13.77;;;26.50;31.40;;;;;;5053526;28;20481;-57
2023/02/15 13:01:15;;;;;;;15.17;13.77;;;26.70;31.10;;;;;;5053518;28;20873;-57
2023/02/15 13:03:59;;;;;;;19.70;13.40;;;27.10;30.60;;;;;;5053443;28;20453;-57
2023/02/15 13:06:27;;;;;;;15.03;13.33;;;27.40;30.20;;;;;;5053497;28;20477;-57
2023/02/15 13:08:56;;;;;;;15.30;13.80;;;27.60;29.60;;;;;;5053466;28;20793;-57
2023/02/15 13:11:27;;;;;;;17.20;14.20;;;27.90;29.40;;;;;;5053404;28;20455;-57
2023/02/15 13:13:56;;;;;;;13.27;12.10;;;28.10;29.00;;;;;;5053433;28;20440;-57
2023/02/15 13:16:31;;;;;;;15.97;14.43;;;28.20;28.60;;;;;;5053300;28;20491;-58
2023/02/15 13:19:04;;;;;;;14.60;13.13;;;28.40;28.30;;;;;;5053016;28;20987;-58